createdAt,value
2023-12-05T00:02:15.928Z,47.1
2023-12-05T00:22:15.842Z,47.2
2023-12-05T00:42:15.931Z,47.2
2023-12-05T01:02:15.826Z,47.3
2023-12-05T01:22:15.853Z,47.4
2023-12-05T01:42:15.905Z,47.4
2023-12-05T02:02:15.510Z,47.5
2023-12-05T02:22:15.529Z,47.6
2023-12-05T02:42:15.787Z,47.6
2023-12-05T03:02:15.750Z,47.7
2023-12-05T03:22:15.637Z,47.9
2023-12-05T03:42:15.532Z,47.6
2023-12-05T04:02:15.680Z,47.3
2023-12-05T04:22:15.464Z,47.2
2023-12-05T04:42:15.531Z,47.1
2023-12-05T05:02:15.388Z,47.1
2023-12-05T05:22:15.469Z,47.3
2023-12-05T05:42:15.462Z,47.3
2023-12-05T06:02:15.326Z,47.2
2023-12-05T06:22:15.514Z,47.1
2023-12-05T06:42:15.204Z,47.0
2023-12-05T07:02:15.395Z,47.0
2023-12-05T07:22:15.515Z,47.0
2023-12-05T07:42:15.112Z,47.0
2023-12-05T08:02:15.054Z,46.9
2023-12-05T08:22:15.352Z,46.9
2023-12-05T08:42:15.248Z,46.9
2023-12-05T09:02:15.311Z,46.9
2023-12-05T09:22:15.229Z,46.9
2023-12-05T09:42:15.108Z,46.9
2023-12-05T10:02:15.067Z,46.8
2023-12-05T10:22:15.165Z,46.8
2023-12-05T10:42:14.868Z,46.9
2023-12-05T11:02:14.842Z,46.8
2023-12-05T11:22:14.826Z,46.8
2023-12-05T11:42:14.785Z,46.9
2023-12-05T12:02:14.738Z,46.9
2023-12-05T12:22:14.763Z,46.8
2023-12-05T12:42:14.779Z,46.9
2023-12-05T13:02:14.827Z,47.0
2023-12-05T13:22:14.726Z,46.8
2023-12-05T13:42:14.629Z,46.7
2023-12-05T14:02:14.678Z,46.7
2023-12-05T14:22:14.621Z,46.9
2023-12-05T14:42:14.576Z,46.9
2023-12-05T15:02:14.537Z,46.9
2023-12-05T15:22:14.724Z,46.9
2023-12-05T15:42:14.875Z,46.9
2023-12-05T16:02:14.750Z,46.9
2023-12-05T16:22:14.928Z,46.9
2023-12-05T16:42:14.680Z,47.0
2023-12-05T17:02:14.495Z,46.9
2023-12-05T17:22:14.437Z,47.0
2023-12-05T17:42:14.649Z,46.9
2023-12-05T18:02:14.600Z,47.0
2023-12-05T18:22:14.438Z,47.1
2023-12-05T18:42:14.514Z,47.0
2023-12-05T19:02:14.545Z,47.1
2023-12-05T19:22:14.496Z,47.3
2023-12-05T19:42:14.353Z,47.9
2023-12-05T20:02:14.505Z,48.3
2023-12-05T20:22:14.387Z,48.4
2023-12-05T20:42:14.393Z,48.2
2023-12-05T21:02:14.246Z,48.1
2023-12-05T21:22:14.389Z,47.9
2023-12-05T21:42:14.327Z,47.9
2023-12-05T22:02:14.346Z,48.1
2023-12-05T22:22:14.239Z,48.3
2023-12-05T22:42:14.725Z,48.4
2023-12-05T23:02:14.046Z,48.5
2023-12-05T23:22:14.053Z,48.6
2023-12-05T23:42:14.224Z,48.7
